Time;durP1;ratioP1;P1;durP2;ratioP2;P2;SDS_P1;SDS_P2;PMS_P1;PMS_P2;Temp;Humidity;BMP_temperature;BMP_pressure;BME280_temperature;BME280_humidity;BME280_pressure;Samples;Min_cycle;Max_cycle;Signal;HPM_P1;HPM_P2
2024/01/03 00:02:03;;;;;;;9.00;5.00;;;;;;;;;;81083;280;3027770;-33
2024/01/03 00:04:40;;;;;;;9.30;5.10;;;;;;;;;;81059;272;3031297;-33
2024/01/03 00:07:17;;;;;;;9.10;5.50;;;;;;;;;;81049;276;3031955;-33
2024/01/03 00:10:00;;;;;;;8.90;5.40;;;;;;;;;;81278;279;3028420;-33
2024/01/03 00:12:38;;;;;;;10.60;5.70;;;;;;;;;;81029;276;3027921;-33
2024/01/03 00:16:06;;;;;;;8.80;5.40;;;;;;;;;;81298;283;3032002;-33
2024/01/03 00:18:51;;;;;;;8.60;4.90;;;;;;;;;;81014;276;3031881;-33
2024/01/03 00:21:30;;;;;;;9.00;5.40;;;;;;;;;;81070;283;3028385;-33
2024/01/03 00:24:09;;;;;;;8.80;5.00;;;;;;;;;;81237;276;3027810;-33
2024/01/03 00:26:45;;;;;;;8.80;5.30;;;;;;;;;;81319;276;3030925;-33
2024/01/03 00:29:52;;;;;;;8.30;5.40;;;;;;;;;;81070;272;3032016;-33
2024/01/03 00:32:29;;;;;;;8.20;5.00;;;;;;;;;;81036;272;3028624;-33
2024/01/03 00:35:06;;;;;;;7.80;5.10;;;;;;;;;;81546;276;3026916;-33
2024/01/03 00:37:43;;;;;;;8.30;5.30;;;;;;;;;;81166;276;3031099;-33
2024/01/03 00:40:55;;;;;;;8.80;4.90;;;;;;;;;;81047;280;3032200;-33
2024/01/03 00:43:32;;;;;;;9.20;5.40;;;;;;;;;;81173;284;3028723;-33
2024/01/03 00:46:09;;;;;;;7.50;4.70;;;;;;;;;;81091;284;3028058;-33
2024/01/03 00:48:45;;;;;;;8.00;5.00;;;;;;;;;;81020;276;3030605;-33
2024/01/03 00:51:22;;;;;;;7.90;5.30;;;;;;;;;;81047;272;3031792;-33
2024/01/03 00:54:00;;;;;;;8.20;4.70;;;;;;;;;;81030;276;3028294;-33
2024/01/03 00:56:37;;;;;;;7.80;4.70;;;;;;;;;;81062;279;3028024;-33
2024/01/03 00:59:15;;;;;;;7.80;4.80;;;;;;;;;;81014;276;3031195;-33
2024/01/03 01:01:52;;;;;;;9.20;5.10;;;;;;;;;;81070;276;3031460;-33
2024/01/03 01:04:28;;;;;;;7.50;4.90;;;;;;;;;;81048;284;3027929;-33
2024/01/03 01:07:08;;;;;;;7.60;5.00;;;;;;;;;;81029;276;3027974;-33
2024/01/03 01:09:44;;;;;;;7.90;4.80;;;;;;;;;;80926;280;3031193;-33
2024/01/03 01:12:22;;;;;;;7.50;4.70;;;;;;;;;;81023;276;3031670;-33
2024/01/03 01:15:00;;;;;;;7.60;4.60;;;;;;;;;;81155;272;3028386;-33
2024/01/03 01:17:40;;;;;;;8.20;5.20;;;;;;;;;;81042;280;3027422;-33
2024/01/03 01:20:18;;;;;;;8.40;4.80;;;;;;;;;;81015;283;3031081;-33
2024/01/03 01:22:54;;;;;;;7.70;4.70;;;;;;;;;;81035;284;3031911;-33
2024/01/03 01:25:30;;;;;;;7.10;4.70;;;;;;;;;;81035;272;3027980;-33
2024/01/03 01:28:09;;;;;;;6.90;4.70;;;;;;;;;;81066;283;3027660;-33
2024/01/03 01:30:47;;;;;;;7.80;4.50;;;;;;;;;;81006;272;3037062;-33
2024/01/03 01:33:24;;;;;;;6.90;4.40;;;;;;;;;;81024;280;3031916;-33
2024/01/03 01:36:00;;;;;;;7.20;4.60;;;;;;;;;;81063;276;3028111;-33
2024/01/03 01:38:36;;;;;;;7.60;4.80;;;;;;;;;;81018;283;3028214;-33
2024/01/03 01:41:12;;;;;;;8.20;5.00;;;;;;;;;;81011;276;3037309;-33
2024/01/03 01:43:48;;;;;;;7.00;4.60;;;;;;;;;;81013;283;3031466;-33
2024/01/03 01:46:26;;;;;;;7.40;4.50;;;;;;;;;;81029;272;3030150;-33
2024/01/03 01:49:02;;;;;;;7.70;4.80;;;;;;;;;;81010;276;3028073;-33
2024/01/03 01:51:40;;;;;;;7.00;4.40;;;;;;;;;;81019;284;3030770;-33
2024/01/03 01:54:18;;;;;;;7.00;4.60;;;;;;;;;;81037;276;3031320;-33
2024/01/03 01:56:55;;;;;;;7.00;4.40;;;;;;;;;;81004;272;3028406;-33
2024/01/03 01:59:31;;;;;;;6.80;4.40;;;;;;;;;;80899;282;3028130;-33
2024/01/03 02:02:08;;;;;;;6.30;4.50;;;;;;;;;;81035;276;3031084;-33
2024/01/03 02:04:47;;;;;;;7.10;4.70;;;;;;;;;;81070;276;3031433;-33
2024/01/03 02:07:24;;;;;;;6.30;4.20;;;;;;;;;;81050;272;3028048;-33
2024/01/03 02:10:00;;;;;;;6.70;4.30;;;;;;;;;;81034;284;3027225;-33
2024/01/03 02:12:36;;;;;;;6.60;4.30;;;;;;;;;;81039;284;3031184;-33
2024/01/03 02:15:13;;;;;;;6.80;4.30;;;;;;;;;;81030;276;3031599;-33
2024/01/03 02:17:49;;;;;;;7.30;4.50;;;;;;;;;;81254;284;3028101;-33
2024/01/03 02:20:28;;;;;;;6.70;4.30;;;;;;;;;;81012;279;3027619;-33
2024/01/03 02:23:07;;;;;;;6.50;4.20;;;;;;;;;;81029;284;3031298;-33
2024/01/03 02:25:44;;;;;;;7.30;4.40;;;;;;;;;;81095;272;3032117;-33
2024/01/03 02:28:26;;;;;;;6.40;4.50;;;;;;;;;;81043;276;3028562;-33
2024/01/03 02:31:04;;;;;;;6.60;4.30;;;;;;;;;;81011;272;3027281;-33
2024/01/03 02:33:42;;;;;;;6.40;4.30;;;;;;;;;;81057;276;3031153;-33
2024/01/03 02:36:20;;;;;;;6.50;4.40;;;;;;;;;;81015;279;3031621;-33
2024/01/03 02:39:02;;;;;;;6.90;4.40;;;;;;;;;;81072;272;3028291;-33
2024/01/03 02:41:38;;;;;;;6.60;4.30;;;;;;;;;;81032;283;3030011;-33
2024/01/03 02:44:17;;;;;;;6.20;4.40;;;;;;;;;;81079;280;3030832;-33
2024/01/03 02:46:53;;;;;;;6.70;4.60;;;;;;;;;;81037;276;3031315;-33
2024/01/03 02:49:32;;;;;;;6.40;4.50;;;;;;;;;;81028;283;3028808;-33
2024/01/03 02:52:10;;;;;;;6.50;4.20;;;;;;;;;;81017;280;3027858;-33
2024/01/03 02:54:47;;;;;;;6.40;4.40;;;;;;;;;;81047;284;3031575;-33
2024/01/03 02:57:26;;;;;;;6.60;4.30;;;;;;;;;;81031;283;3032000;-33
2024/01/03 03:00:04;;;;;;;6.20;4.10;;;;;;;;;;81076;272;3028565;-33
2024/01/03 03:02:40;;;;;;;6.90;4.60;;;;;;;;;;80997;284;3034927;-33
2024/01/03 03:05:17;;;;;;;6.40;4.20;;;;;;;;;;81038;276;3032129;-33
2024/01/03 03:07:58;;;;;;;6.80;4.00;;;;;;;;;;81039;283;3031553;-33
2024/01/03 03:10:34;;;;;;;6.20;4.10;;;;;;;;;;81016;268;3028437;-33
2024/01/03 03:13:13;;;;;;;7.00;4.40;;;;;;;;;;81034;283;3033972;-33
2024/01/03 03:15:54;;;;;;;6.90;4.30;;;;;;;;;;81041;284;3031326;-33
2024/01/03 03:18:30;;;;;;;6.50;4.30;;;;;;;;;;81049;283;3031667;-33
2024/01/03 03:21:09;;;;;;;7.10;3.90;;;;;;;;;;81020;283;3028184;-33
2024/01/03 03:23:45;;;;;;;6.70;4.30;;;;;;;;;;81080;283;3027805;-33
2024/01/03 03:26:23;;;;;;;6.20;4.40;;;;;;;;;;81081;272;3030860;-33
2024/01/03 03:29:01;;;;;;;6.60;4.10;;;;;;;;;;81074;283;3031495;-33
2024/01/03 03:31:39;;;;;;;6.60;4.20;;;;;;;;;;81029;272;3027994;-33
2024/01/03 03:34:19;;;;;;;5.70;4.00;;;;;;;;;;81059;276;3027827;-33
2024/01/03 03:36:57;;;;;;;6.70;4.20;;;;;;;;;;81164;283;3031368;-33
2024/01/03 03:39:35;;;;;;;6.50;3.90;;;;;;;;;;81051;276;3032434;-33
2024/01/03 03:42:18;;;;;;;6.00;3.80;;;;;;;;;;81095;276;3028808;-33
2024/01/03 03:44:57;;;;;;;6.70;4.20;;;;;;;;;;81070;280;3028218;-33
2024/01/03 03:47:33;;;;;;;5.90;4.10;;;;;;;;;;81055;280;3032135;-33
2024/01/03 03:50:11;;;;;;;6.90;4.10;;;;;;;;;;81039;272;3031978;-33
2024/01/03 03:52:47;;;;;;;6.50;4.10;;;;;;;;;;81097;276;3028509;-33
2024/01/03 03:55:23;;;;;;;5.80;3.80;;;;;;;;;;81067;283;3027492;-33
2024/01/03 03:58:01;;;;;;;6.20;4.00;;;;;;;;;;81064;276;3031274;-33
2024/01/03 04:00:37;;;;;;;5.70;3.80;;;;;;;;;;81055;272;3031790;-33
2024/01/03 04:03:15;;;;;;;5.60;3.70;;;;;;;;;;81042;272;3028466;-33
2024/01/03 04:05:52;;;;;;;6.40;3.90;;;;;;;;;;81057;276;3027971;-33
2024/01/03 04:08:28;;;;;;;6.10;3.70;;;;;;;;;;81083;276;3031393;-33
2024/01/03 04:11:08;;;;;;;6.30;3.60;;;;;;;;;;81077;284;3031805;-33
2024/01/03 04:13:43;;;;;;;6.40;3.80;;;;;;;;;;81204;276;3028625;-33
2024/01/03 04:16:20;;;;;;;5.40;3.70;;;;;;;;;;81060;272;3027942;-33
2024/01/03 04:18:57;;;;;;;5.40;3.50;;;;;;;;;;81080;276;3030529;-33
2024/01/03 04:21:33;;;;;;;5.40;3.50;;;;;;;;;;81057;279;3032014;-33
2024/01/03 04:24:12;;;;;;;6.00;3.90;;;;;;;;;;80994;284;3028267;-33
2024/01/03 04:26:47;;;;;;;6.70;3.80;;;;;;;;;;81041;276;3027401;-33
2024/01/03 04:29:24;;;;;;;5.90;3.60;;;;;;;;;;81063;284;3031228;-33
2024/01/03 04:32:00;;;;;;;6.30;3.70;;;;;;;;;;81051;276;3031545;-33
2024/01/03 04:34:39;;;;;;;5.80;3.70;;;;;;;;;;81706;276;3027948;-33
2024/01/03 04:37:15;;;;;;;5.80;3.60;;;;;;;;;;81090;283;3027328;-33
2024/01/03 04:39:53;;;;;;;6.20;3.60;;;;;;;;;;81017;283;3030914;-33
2024/01/03 04:42:32;;;;;;;6.30;3.80;;;;;;;;;;81045;283;3031908;-33
2024/01/03 04:45:11;;;;;;;6.60;3.60;;;;;;;;;;81031;276;3034714;-33
2024/01/03 04:47:47;;;;;;;6.50;3.80;;;;;;;;;;81085;276;3030079;-33
2024/01/03 04:50:23;;;;;;;6.80;3.70;;;;;;;;;;81046;276;3030607;-33
2024/01/03 04:52:59;;;;;;;6.10;3.60;;;;;;;;;;81035;284;3031858;-33
2024/01/03 04:55:37;;;;;;;6.30;3.70;;;;;;;;;;81068;283;3029325;-33
2024/01/03 04:58:15;;;;;;;5.40;3.70;;;;;;;;;;81060;284;3027812;-33
2024/01/03 05:00:51;;;;;;;5.70;3.40;;;;;;;;;;81033;283;3030721;-33
2024/01/03 05:03:27;;;;;;;6.40;3.60;;;;;;;;;;81022;283;3032138;-33
2024/01/03 05:06:07;;;;;;;4.90;3.10;;;;;;;;;;81047;283;3028790;-33
2024/01/03 05:08:48;;;;;;;5.80;3.50;;;;;;;;;;81028;276;3027429;-33
2024/01/03 05:11:24;;;;;;;5.50;3.40;;;;;;;;;;81023;276;3031395;-33
2024/01/03 05:14:02;;;;;;;5.60;3.40;;;;;;;;;;80990;288;3032279;-33
2024/01/03 05:16:41;;;;;;;5.70;3.60;;;;;;;;;;81072;272;3028746;-33
2024/01/03 05:19:20;;;;;;;5.50;3.50;;;;;;;;;;81034;283;3027823;-33
2024/01/03 05:21:56;;;;;;;6.50;3.30;;;;;;;;;;81037;283;3031120;-33
2024/01/03 05:24:34;;;;;;;5.80;3.40;;;;;;;;;;80998;279;3031828;-33
2024/01/03 05:27:10;;;;;;;6.10;3.30;;;;;;;;;;81043;272;3028512;-33
2024/01/03 05:29:47;;;;;;;5.80;3.40;;;;;;;;;;81081;280;3027633;-33
2024/01/03 05:32:24;;;;;;;5.20;3.20;;;;;;;;;;81090;272;3031320;-33
2024/01/03 05:35:05;;;;;;;5.90;3.50;;;;;;;;;;80988;276;3031600;-33
2024/01/03 05:37:40;;;;;;;5.60;3.50;;;;;;;;;;81058;276;3027976;-33
2024/01/03 05:40:18;;;;;;;5.20;3.20;;;;;;;;;;81052;272;3027173;-33
2024/01/03 05:42:55;;;;;;;5.10;3.10;;;;;;;;;;81085;272;3031566;-33
2024/01/03 05:45:32;;;;;;;5.80;3.50;;;;;;;;;;80988;272;3032783;-33
2024/01/03 05:48:09;;;;;;;5.10;3.10;;;;;;;;;;81069;272;3028108;-33
2024/01/03 05:50:46;;;;;;;5.10;3.00;;;;;;;;;;81083;283;3027856;-33
2024/01/03 05:53:22;;;;;;;5.50;3.40;;;;;;;;;;81058;283;3031102;-33
2024/01/03 05:56:01;;;;;;;5.90;3.20;;;;;;;;;;81030;280;3031980;-33
2024/01/03 05:58:37;;;;;;;5.30;3.30;;;;;;;;;;81018;276;3028868;-33
2024/01/03 06:01:19;;;;;;;5.20;3.20;;;;;;;;;;81029;276;3027386;-33
2024/01/03 06:03:58;;;;;;;5.30;3.10;;;;;;;;;;81073;283;3030586;-33
2024/01/03 06:06:35;;;;;;;5.30;3.20;;;;;;;;;;81010;280;3031511;-33
2024/01/03 06:09:13;;;;;;;5.50;3.00;;;;;;;;;;81063;276;3028566;-33
2024/01/03 06:11:49;;;;;;;5.10;3.10;;;;;;;;;;81047;276;3027359;-33
2024/01/03 06:14:25;;;;;;;5.60;3.20;;;;;;;;;;81035;276;3031022;-33
2024/01/03 06:17:02;;;;;;;5.20;3.10;;;;;;;;;;81000;276;3037742;-33
2024/01/03 06:19:38;;;;;;;5.90;3.20;;;;;;;;;;81032;276;3029018;-33
2024/01/03 06:22:16;;;;;;;5.10;2.90;;;;;;;;;;81019;272;3027795;-33
2024/01/03 06:24:54;;;;;;;6.30;3.50;;;;;;;;;;81020;283;3031382;-33
2024/01/03 06:27:32;;;;;;;5.60;3.10;;;;;;;;;;81051;284;3037932;-33
2024/01/03 06:30:11;;;;;;;6.00;3.00;;;;;;;;;;81023;280;3029346;-33
2024/01/03 06:32:51;;;;;;;5.70;2.90;;;;;;;;;;81432;283;3027192;-33
2024/01/03 06:35:28;;;;;;;5.00;2.80;;;;;;;;;;80993;276;3030974;-33
2024/01/03 06:38:08;;;;;;;5.20;3.00;;;;;;;;;;81082;272;3031213;-33
2024/01/03 06:40:44;;;;;;;4.70;2.90;;;;;;;;;;81061;284;3027875;-33
2024/01/03 06:43:20;;;;;;;4.90;3.00;;;;;;;;;;81058;272;3027534;-33
2024/01/03 06:45:58;;;;;;;5.00;2.90;;;;;;;;;;81022;283;3031665;-33
2024/01/03 06:48:37;;;;;;;5.80;3.00;;;;;;;;;;81077;276;3032591;-33
2024/01/03 06:51:14;;;;;;;4.90;2.90;;;;;;;;;;81088;276;3028482;-33
2024/01/03 06:53:52;;;;;;;4.80;2.80;;;;;;;;;;81093;279;3028356;-34
2024/01/03 06:56:31;;;;;;;5.30;3.00;;;;;;;;;;81046;273;3031351;-34
2024/01/03 06:59:09;;;;;;;5.40;2.90;;;;;;;;;;81122;270;3031699;-34
2024/01/03 07:01:49;;;;;;;4.50;2.70;;;;;;;;;;81082;275;3027992;-33
2024/01/03 07:04:26;;;;;;;4.60;2.50;;;;;;;;;;81075;275;3027404;-33
2024/01/03 07:07:04;;;;;;;5.00;2.60;;;;;;;;;;81066;283;3031204;-33
2024/01/03 07:09:41;;;;;;;4.90;2.90;;;;;;;;;;81091;283;3032074;-34
2024/01/03 07:12:17;;;;;;;4.80;2.70;;;;;;;;;;81075;275;3028524;-34
2024/01/03 07:14:54;;;;;;;5.10;3.10;;;;;;;;;;81123;283;3027396;-33
2024/01/03 07:17:34;;;;;;;5.20;2.90;;;;;;;;;;81075;271;3031324;-34
2024/01/03 07:20:13;;;;;;;5.00;2.70;;;;;;;;;;81113;283;3031881;-34
2024/01/03 07:22:49;;;;;;;5.10;2.90;;;;;;;;;;81333;271;3028415;-34
2024/01/03 07:25:25;;;;;;;5.20;2.80;;;;;;;;;;81121;275;3028951;-34
2024/01/03 07:28:02;;;;;;;4.50;2.60;;;;;;;;;;81070;283;3030707;-34
2024/01/03 07:30:39;;;;;;;5.20;2.80;;;;;;;;;;81099;275;3033966;-33
2024/01/03 07:33:16;;;;;;;4.90;2.80;;;;;;;;;;81054;283;3028684;-33
2024/01/03 07:35:53;;;;;;;5.40;3.00;;;;;;;;;;81072;271;3027152;-33
2024/01/03 07:38:32;;;;;;;4.90;2.90;;;;;;;;;;81064;275;3030894;-33
2024/01/03 07:41:20;;;;;;;6.20;3.00;;;;;;;;;;81068;279;3031363;-34
2024/01/03 07:43:56;;;;;;;5.10;2.90;;;;;;;;;;81134;278;3028181;-33
2024/01/03 07:46:31;;;;;;;4.90;2.60;;;;;;;;;;80986;276;3027583;-34
2024/01/03 07:49:07;;;;;;;6.40;2.90;;;;;;;;;;81075;275;3035343;-34
2024/01/03 07:51:45;;;;;;;5.30;2.70;;;;;;;;;;81133;271;3031220;-33
2024/01/03 07:54:21;;;;;;;5.60;2.70;;;;;;;;;;81200;275;3028503;-34
2024/01/03 07:57:01;;;;;;;5.40;2.70;;;;;;;;;;81144;283;3028193;-34
2024/01/03 07:59:40;;;;;;;4.70;2.60;;;;;;;;;;81165;283;3038221;-33
2024/01/03 08:02:16;;;;;;;4.90;2.60;;;;;;;;;;81136;283;3031570;-33
2024/01/03 08:04:52;;;;;;;5.70;2.50;;;;;;;;;;81115;283;3028724;-33
2024/01/03 08:07:28;;;;;;;4.70;2.80;;;;;;;;;;81095;283;3027192;-33
2024/01/03 08:10:04;;;;;;;5.10;3.30;;;;;;;;;;81139;275;3031205;-33
2024/01/03 08:12:40;;;;;;;11.20;9.50;;;;;;;;;;81155;283;3031801;-33
2024/01/03 08:15:18;;;;;;;11.40;9.50;;;;;;;;;;81145;283;3028288;-33
2024/01/03 08:17:54;;;;;;;11.40;9.80;;;;;;;;;;81068;275;3027579;-33
2024/01/03 08:20:30;;;;;;;11.70;9.80;;;;;;;;;;81111;276;3030592;-33
2024/01/03 08:23:08;;;;;;;12.40;10.10;;;;;;;;;;81103;284;3031855;-33
2024/01/03 08:25:46;;;;;;;12.80;10.30;;;;;;;;;;81139;280;3028480;-33
2024/01/03 08:28:21;;;;;;;12.80;10.10;;;;;;;;;;81115;276;3027354;-33
2024/01/03 08:30:57;;;;;;;11.60;9.50;;;;;;;;;;81078;276;3030408;-33
2024/01/03 08:33:36;;;;;;;11.80;9.90;;;;;;;;;;81130;283;3032990;-33
2024/01/03 08:36:16;;;;;;;10.90;9.50;;;;;;;;;;81142;283;3028625;-34
2024/01/03 08:38:52;;;;;;;11.80;9.40;;;;;;;;;;81139;283;3027117;-34
2024/01/03 08:41:29;;;;;;;11.30;9.00;;;;;;;;;;81329;279;3030549;-33
2024/01/03 08:44:07;;;;;;;11.60;8.90;;;;;;;;;;81017;280;3031714;-33
2024/01/03 08:46:45;;;;;;;10.00;8.40;;;;;;;;;;81053;276;3028381;-33
2024/01/03 08:49:21;;;;;;;13.30;8.90;;;;;;;;;;81007;283;3027845;-34
2024/01/03 08:51:58;;;;;;;9.60;8.00;;;;;;;;;;81064;284;3031262;-34
2024/01/03 08:54:36;;;;;;;10.00;7.50;;;;;;;;;;81061;283;3032514;-34
2024/01/03 08:57:12;;;;;;;10.40;7.40;;;;;;;;;;81076;284;3028286;-34
2024/01/03 08:59:48;;;;;;;10.70;7.10;;;;;;;;;;81104;276;3027874;-34
2024/01/03 09:02:24;;;;;;;9.90;7.10;;;;;;;;;;81109;284;3031182;-33
2024/01/03 09:05:05;;;;;;;10.40;7.00;;;;;;;;;;81147;276;3031653;-33
2024/01/03 09:07:41;;;;;;;9.60;6.50;;;;;;;;;;81160;283;3027982;-33
2024/01/03 09:10:19;;;;;;;9.20;6.80;;;;;;;;;;81088;276;3027791;-33
2024/01/03 09:12:57;;;;;;;8.10;6.20;;;;;;;;;;81169;276;3031103;-34
2024/01/03 09:15:35;;;;;;;9.50;6.00;;;;;;;;;;81146;272;3031244;-33
2024/01/03 09:18:12;;;;;;;8.50;5.80;;;;;;;;;;81110;283;3028392;-34
2024/01/03 09:20:49;;;;;;;9.00;5.50;;;;;;;;;;81073;271;3028251;-33
2024/01/03 09:23:30;;;;;;;7.70;5.30;;;;;;;;;;81142;276;3030940;-33
2024/01/03 09:26:10;;;;;;;9.60;5.80;;;;;;;;;;81135;283;3032279;-33
2024/01/03 09:28:48;;;;;;;8.00;5.40;;;;;;;;;;81131;272;3028050;-33
2024/01/03 09:31:28;;;;;;;7.60;5.50;;;;;;;;;;81086;272;3033325;-33
2024/01/03 09:34:07;;;;;;;7.80;5.20;;;;;;;;;;81078;276;3030641;-33
2024/01/03 09:36:43;;;;;;;8.20;5.20;;;;;;;;;;80772;272;3032169;-34
2024/01/03 09:39:20;;;;;;;7.50;5.30;;;;;;;;;;81050;271;3028206;-34
2024/01/03 09:41:55;;;;;;;8.10;5.30;;;;;;;;;;81413;280;3034364;-33
2024/01/03 09:44:32;;;;;;;7.40;4.90;;;;;;;;;;81074;283;3029918;-33
2024/01/03 09:47:09;;;;;;;7.10;4.80;;;;;;;;;;81053;283;3031756;-32
2024/01/03 09:49:49;;;;;;;7.30;4.50;;;;;;;;;;82216;270;3028620;-32
2024/01/03 09:52:25;;;;;;;6.40;4.20;;;;;;;;;;81013;285;3029689;-32
2024/01/03 09:55:02;;;;;;;7.70;4.50;;;;;;;;;;81043;275;3031136;-32
2024/01/03 09:57:40;;;;;;;7.20;4.20;;;;;;;;;;81058;283;3031295;-32
2024/01/03 10:00:23;;;;;;;6.70;4.20;;;;;;;;;;81009;270;3028115;-32
2024/01/03 10:03:04;;;;;;;7.60;4.20;;;;;;;;;;81085;275;3027099;-32
2024/01/03 10:05:41;;;;;;;7.50;4.20;;;;;;;;;;81849;275;3031012;-32
2024/01/03 10:08:21;;;;;;;6.60;4.00;;;;;;;;;;81108;275;3031344;-32
2024/01/03 10:10:57;;;;;;;6.40;3.90;;;;;;;;;;81552;283;3028033;-33
2024/01/03 10:13:38;;;;;;;6.80;3.80;;;;;;;;;;81080;275;3027285;-32
2024/01/03 10:16:28;;;;;;;6.30;4.00;;;;;;;;;;81069;275;3031536;-32
2024/01/03 10:19:16;;;;;;;6.50;3.60;;;;;;;;;;81043;275;3031832;-33
2024/01/03 10:21:59;;;;;;;5.80;3.90;;;;;;;;;;81023;283;3029678;-33
2024/01/03 10:24:43;;;;;;;6.40;3.70;;;;;;;;;;81058;275;3027889;-33
2024/01/03 10:27:20;;;;;;;6.90;3.80;;;;;;;;;;81099;283;3030972;-32
2024/01/03 10:30:17;;;;;;;6.00;3.70;;;;;;;;;;81095;282;3032998;-33
2024/01/03 10:33:00;;;;;;;5.30;3.20;;;;;;;;;;82473;278;3035110;-33
2024/01/03 10:35:40;;;;;;;6.40;3.50;;;;;;;;;;81433;282;3027038;-33
2024/01/03 10:38:17;;;;;;;5.80;3.20;;;;;;;;;;82388;283;3031038;-33
2024/01/03 10:40:55;;;;;;;6.10;3.00;;;;;;;;;;80994;271;3031980;-33
2024/01/03 10:43:33;;;;;;;6.90;3.00;;;;;;;;;;81074;275;3028602;-33
2024/01/03 10:46:10;;;;;;;6.00;3.00;;;;;;;;;;81032;283;3027782;-33
2024/01/03 10:48:46;;;;;;;6.40;2.90;;;;;;;;;;81022;283;3031302;-33
2024/01/03 10:51:26;;;;;;;5.80;3.50;;;;;;;;;;81022;272;3033029;-33
2024/01/03 10:54:04;;;;;;;5.50;3.00;;;;;;;;;;81015;283;3028096;-32
2024/01/03 10:56:41;;;;;;;5.70;3.10;;;;;;;;;;81028;283;3028150;-32
2024/01/03 10:59:27;;;;;;;5.60;3.00;;;;;;;;;;81041;280;3031844;-33
2024/01/03 11:02:18;;;;;;;5.00;2.80;;;;;;;;;;80977;284;3031424;-32
2024/01/03 11:05:01;;;;;;;5.80;3.00;;;;;;;;;;81003;276;3028777;-33
2024/01/03 11:07:44;;;;;;;4.90;2.70;;;;;;;;;;81053;276;3027836;-33
2024/01/03 11:10:51;;;;;;;6.10;2.90;;;;;;;;;;82435;280;3030672;-33
2024/01/03 11:13:32;;;;;;;5.40;3.00;;;;;;;;;;81721;272;3031960;-33
2024/01/03 11:16:37;;;;;;;5.00;3.00;;;;;;;;;;82029;276;3028056;-33
2024/01/03 11:19:13;;;;;;;4.50;2.60;;;;;;;;;;82153;280;3027856;-33
2024/01/03 11:21:53;;;;;;;6.20;2.90;;;;;;;;;;80998;276;3031248;-33
2024/01/03 11:24:55;;;;;;;5.00;2.80;;;;;;;;;;81002;276;3031498;-33
2024/01/03 11:27:32;;;;;;;4.60;2.90;;;;;;;;;;81019;276;3028878;-33
2024/01/03 11:30:50;;;;;;;6.20;2.70;;;;;;;;;;80991;283;3027670;-33
2024/01/03 11:33:31;;;;;;;5.50;3.00;;;;;;;;;;81347;284;3031324;-32
2024/01/03 11:36:11;;;;;;;5.90;3.00;;;;;;;;;;80985;276;3031660;-32
2024/01/03 11:38:48;;;;;;;5.60;2.70;;;;;;;;;;81034;271;3027937;-33
2024/01/03 11:41:27;;;;;;;4.90;2.80;;;;;;;;;;81013;271;3027510;-33
2024/01/03 11:44:06;;;;;;;4.80;2.90;;;;;;;;;;80964;271;3030748;-33
2024/01/03 11:46:43;;;;;;;4.70;2.80;;;;;;;;;;81006;284;3031819;-34
2024/01/03 11:49:24;;;;;;;5.10;2.70;;;;;;;;;;81017;276;3028573;-33
2024/01/03 11:52:01;;;;;;;5.70;3.20;;;;;;;;;;81563;283;3027386;-33
2024/01/03 11:54:38;;;;;;;5.00;2.80;;;;;;;;;;80999;276;3031515;-32
2024/01/03 11:57:17;;;;;;;4.90;2.70;;;;;;;;;;80992;276;3031428;-33
2024/01/03 12:00:01;;;;;;;5.30;2.90;;;;;;;;;;80953;276;3028360;-33
2024/01/03 12:02:53;;;;;;;5.00;2.70;;;;;;;;;;80951;284;3027494;-32
2024/01/03 12:05:30;;;;;;;4.80;2.90;;;;;;;;;;82314;280;3030448;-33
2024/01/03 12:08:07;;;;;;;5.00;2.70;;;;;;;;;;81221;281;3031511;-32
2024/01/03 12:10:44;;;;;;;5.90;2.80;;;;;;;;;;81338;280;3027806;-32
2024/01/03 12:13:20;;;;;;;5.20;2.70;;;;;;;;;;80921;284;3028218;-32
2024/01/03 12:16:04;;;;;;;4.70;2.60;;;;;;;;;;80980;277;3031303;-33
2024/01/03 12:18:54;;;;;;;6.60;2.80;;;;;;;;;;81046;276;3032219;-33
2024/01/03 12:21:32;;;;;;;5.30;2.70;;;;;;;;;;80955;284;3027902;-33
2024/01/03 12:24:11;;;;;;;4.80;3.00;;;;;;;;;;80914;272;3027315;-33
2024/01/03 12:26:53;;;;;;;5.80;3.00;;;;;;;;;;80978;284;3031160;-32
2024/01/03 12:29:32;;;;;;;6.20;3.10;;;;;;;;;;80979;280;3031399;-32
2024/01/03 12:32:17;;;;;;;6.50;3.60;;;;;;;;;;80986;280;3028525;-32
2024/01/03 12:35:05;;;;;;;7.10;4.40;;;;;;;;;;82045;284;3028499;-33
2024/01/03 12:37:45;;;;;;;8.20;4.80;;;;;;;;;;81653;279;3031183;-32
2024/01/03 12:40:23;;;;;;;7.60;5.10;;;;;;;;;;80923;285;3032424;-31
2024/01/03 12:43:02;;;;;;;7.40;5.90;;;;;;;;;;80991;276;3029634;-31
2024/01/03 12:45:41;;;;;;;9.00;7.60;;;;;;;;;;80971;280;3027976;-30
2024/01/03 12:48:17;;;;;;;7.50;6.80;;;;;;;;;;80989;283;3031184;-31
2024/01/03 12:50:54;;;;;;;8.40;6.70;;;;;;;;;;81046;272;3031901;-31
2024/01/03 12:53:30;;;;;;;13.70;8.10;;;;;;;;;;82356;272;3028340;-31
2024/01/03 12:56:07;;;;;;;10.30;9.20;;;;;;;;;;81630;285;3034236;-33
2024/01/03 12:58:43;;;;;;;11.60;9.20;;;;;;;;;;81125;280;3031042;-32
2024/01/03 13:01:19;;;;;;;11.10;10.10;;;;;;;;;;80980;273;3031747;-31
2024/01/03 13:03:55;;;;;;;12.20;11.00;;;;;;;;;;80974;284;3029651;-32
2024/01/03 13:06:31;;;;;;;12.00;10.90;;;;;;;;;;81053;276;3035614;-31
2024/01/03 13:09:13;;;;;;;13.00;11.80;;;;;;;;;;81014;280;3030916;-32
2024/01/03 13:11:52;;;;;;;14.30;13.00;;;;;;;;;;81015;280;3031152;-32
2024/01/03 13:14:28;;;;;;;14.20;13.00;;;;;;;;;;81058;283;3028413;-32
2024/01/03 13:17:05;;;;;;;14.90;13.50;;;;;;;;;;81026;283;3027854;-32
2024/01/03 13:19:42;;;;;;;15.60;14.30;;;;;;;;;;81010;283;3031138;-32
2024/01/03 13:22:21;;;;;;;16.20;14.80;;;;;;;;;;80987;276;3031327;-32
2024/01/03 13:24:58;;;;;;;16.00;14.60;;;;;;;;;;81012;283;3029364;-31
2024/01/03 13:27:35;;;;;;;16.10;14.70;;;;;;;;;;81001;280;3028718;-32
2024/01/03 13:30:15;;;;;;;16.50;15.10;;;;;;;;;;81016;276;3031020;-32
2024/01/03 13:32:51;;;;;;;16.20;14.90;;;;;;;;;;81518;276;3031742;-32
2024/01/03 13:35:29;;;;;;;14.80;13.40;;;;;;;;;;80990;284;3029084;-32
2024/01/03 13:38:07;;;;;;;14.40;13.20;;;;;;;;;;81037;283;3027705;-32
2024/01/03 13:40:46;;;;;;;15.60;14.20;;;;;;;;;;81030;279;3030756;-32
2024/01/03 13:43:27;;;;;;;15.00;13.70;;;;;;;;;;81057;275;3031401;-31
2024/01/03 13:46:04;;;;;;;14.60;13.30;;;;;;;;;;82354;284;3028619;-32
2024/01/03 13:48:40;;;;;;;14.40;13.20;;;;;;;;;;82414;279;3027185;-32
2024/01/03 13:51:21;;;;;;;14.90;13.60;;;;;;;;;;81954;272;3030748;-32
2024/01/03 13:53:58;;;;;;;14.80;13.50;;;;;;;;;;82262;272;3031317;-32
2024/01/03 13:56:34;;;;;;;15.10;13.80;;;;;;;;;;82339;280;3028081;-32
2024/01/03 13:59:12;;;;;;;14.20;12.90;;;;;;;;;;82392;280;3027402;-32
2024/01/03 14:01:51;;;;;;;14.80;13.50;;;;;;;;;;81977;280;3030616;-32
2024/01/03 14:04:29;;;;;;;16.00;14.60;;;;;;;;;;80997;276;3032097;-32
2024/01/03 14:07:06;;;;;;;14.60;13.40;;;;;;;;;;80929;284;3027908;-32
2024/01/03 14:09:43;;;;;;;16.00;14.60;;;;;;;;;;82320;280;3027244;-32
2024/01/03 14:12:19;;;;;;;15.60;14.30;;;;;;;;;;82332;284;3031393;-32
2024/01/03 14:14:55;;;;;;;14.40;13.20;;;;;;;;;;82282;280;3031855;-32
2024/01/03 14:17:32;;;;;;;15.60;14.20;;;;;;;;;;82248;284;3028869;-32
2024/01/03 14:20:12;;;;;;;15.50;14.20;;;;;;;;;;81214;280;3027203;-32
2024/01/03 14:22:48;;;;;;;15.40;14.00;;;;;;;;;;81003;284;3031084;-32
2024/01/03 14:25:25;;;;;;;14.90;13.60;;;;;;;;;;80935;280;3032148;-32
2024/01/03 14:28:01;;;;;;;15.50;14.10;;;;;;;;;;81307;284;3028119;-32
2024/01/03 14:30:39;;;;;;;14.60;13.40;;;;;;;;;;80978;284;3027564;-32
2024/01/03 14:33:15;;;;;;;15.00;13.70;;;;;;;;;;81023;284;3030627;-32
2024/01/03 14:35:52;;;;;;;15.10;13.80;;;;;;;;;;81029;280;3032238;-32
2024/01/03 14:38:29;;;;;;;15.00;13.70;;;;;;;;;;81027;276;3028147;-31
2024/01/03 14:41:15;;;;;;;15.00;13.70;;;;;;;;;;81035;276;3027158;-31
2024/01/03 14:43:58;;;;;;;15.10;13.80;;;;;;;;;;81036;279;3031482;-32
2024/01/03 14:46:34;;;;;;;;;;;;;;;;;;81038;283;3032205;-32
2024/01/03 14:49:11;;;;;;;15.70;14.40;;;;;;;;;;81768;276;3011663;-32
2024/01/03 14:51:49;;;;;;;14.60;13.20;;;;;;;;;;81007;276;3027905;-32
2024/01/03 14:54:24;;;;;;;15.10;13.80;;;;;;;;;;81016;276;3028159;-31
2024/01/03 14:57:01;;;;;;;14.50;13.30;;;;;;;;;;80994;276;3030915;-32
2024/01/03 14:59:38;;;;;;;14.90;13.60;;;;;;;;;;81026;280;3031342;-32
2024/01/03 15:02:14;;;;;;;14.20;13.00;;;;;;;;;;81716;276;3029529;-32
2024/01/03 15:04:50;;;;;;;13.70;12.60;;;;;;;;;;81030;276;3027340;-32
2024/01/03 15:07:26;;;;;;;13.80;12.60;;;;;;;;;;81017;276;3031430;-31
2024/01/03 15:10:02;;;;;;;13.80;12.60;;;;;;;;;;81070;283;3032688;-31
2024/01/03 15:12:38;;;;;;;13.70;12.50;;;;;;;;;;81019;283;3027892;-32
2024/01/03 15:15:15;;;;;;;13.60;12.40;;;;;;;;;;81007;279;3027888;-32
2024/01/03 15:17:51;;;;;;;13.70;12.50;;;;;;;;;;80994;279;3031063;-32
2024/01/03 15:20:27;;;;;;;13.80;12.60;;;;;;;;;;81744;279;3032064;-32
2024/01/03 15:23:04;;;;;;;13.40;12.20;;;;;;;;;;81012;283;3028610;-32
2024/01/03 15:25:43;;;;;;;13.90;12.60;;;;;;;;;;81016;283;3027868;-32
2024/01/03 15:28:20;;;;;;;13.40;12.30;;;;;;;;;;81015;276;3030738;-32
2024/01/03 15:30:57;;;;;;;13.30;12.10;;;;;;;;;;81012;276;3031448;-32
2024/01/03 15:33:36;;;;;;;12.80;11.60;;;;;;;;;;81042;276;3028643;-32